Lake Mills, WI

9:36 AM CST on December 22, 2014 (GMT -0600)
WIDOT Johnson Creek - I-94 @ CTH Y | Change Station
CLOSE
Current Station
Personal Weather Station
Location: Johnson Creek, WI
Elevation: 835 ft
Nearby Weather Stations

Elev 835 ft 43.09 °N, 88.78 °W | Updated 38 minutes ago

Overcast
Overcast
32 °F
Feels Like 32 °F
N
3
Wind Variable Wind from North
Gusts 10.0 mph

Today
High -- | Low -- °F
--% Chance of Precip.
Yesterday
High -- | Low -- °F
Precip. -- in
7:24 AM 4:24 PM
New Moon, 0% visible
Pressure 29.86 in
Visibility 5.0 miles
Clouds Mostly Cloudy 3400 ft
Overcast 4000 ft
Windchill 32 °F
Dew Point 30 °F
Humidity 91%
Rainfall -999.00 in
Snow Depth Not available.
UV 0 out of 12
Pollen .10 out of 12
Air Quality Not available.
Flu Activity Not available.
METAR KRYV 221515Z AUTO 10007KT 5SM BR BKN034 OVC040 00/M01 A2986 RMK AO2 T00001006

More Conditions Fewer Conditions

Pressure 29.86 in
Visibility 5.0 miles
Clouds Mostly Cloudy 3400 ft
Overcast 4000 ft
Windchill 32 °F
Dew Point 30 °F
Humidity 91%
Rainfall -999.00 in
Snow Depth Not available.
UV 0 out of 12
Pollen .10 out of 12
Air Quality Not available.
Flu Activity Not available.
METAR KRYV 221515Z AUTO 10007KT 5SM BR BKN034 OVC040 00/M01 A2986 RMK AO2 T00001006

More Conditions Fewer Conditions

10-Day Weather Forecast

Almanac

Astronomy

Dec. 22, 2014 Rise Set
Actual Time
Civil Twilight
Nautical Twilight
Astronomical Twilight
Moon
Length of Visible Light
Length of Day
Tomorrow will be .
, % of the Moon is Illuminated

Today's Extremes

State Highs State Lows

Community

WunderPhotos

Upload Photos

1,779,619 photos uploaded!

WunderBlogs® & News

Nearby

Air Quality

  Air Quality AQ Index Pollutant
Not available.

Snow Depth

Station Depth Elevation

Earthquake Activity

City Distance Mag. Time & Date
Minimum magnitude displayed is 2.5.

Coastal Water Temperatures

Place Temperature

Nearby Weather Stations